sensor_id;sensor_type;location;lat;lon;timestamp;temperature;humidity
816;DHT22;25928;51.062;13.752;2023-05-10T00:00:53;15.00;99.90
816;DHT22;25928;51.062;13.752;2023-05-10T00:03:19;15.00;99.90
816;DHT22;25928;51.062;13.752;2023-05-10T00:05:44;15.00;99.90
816;DHT22;25928;51.062;13.752;2023-05-10T00:08:10;14.90;99.90
816;DHT22;25928;51.062;13.752;2023-05-10T00:10:35;14.90;99.90
816;DHT22;25928;51.062;13.752;2023-05-10T00:13:02;14.90;99.90
816;DHT22;25928;51.062;13.752;2023-05-10T00:15:28;14.80;99.90
816;DHT22;25928;51.062;13.752;2023-05-10T00:17:56;14.80;99.90
816;DHT22;25928;51.062;13.752;2023-05-10T00:20:21;14.80;99.90
816;DHT22;25928;51.062;13.752;2023-05-10T00:22:47;14.80;99.90
816;DHT22;25928;51.062;13.752;2023-05-10T00:25:13;14.80;99.90
816;DHT22;25928;51.062;13.752;2023-05-10T00:27:38;14.80;99.90
816;DHT22;25928;51.062;13.752;2023-05-10T00:30:05;14.70;99.90
816;DHT22;25928;51.062;13.752;2023-05-10T00:32:31;14.70;99.90
816;DHT22;25928;51.062;13.752;2023-05-10T00:34:57;14.70;99.90
816;DHT22;25928;51.062;13.752;2023-05-10T00:37:23;14.60;99.90
816;DHT22;25928;51.062;13.752;2023-05-10T00:39:48;14.60;99.90
816;DHT22;25928;51.062;13.752;2023-05-10T00:42:14;14.60;99.90
816;DHT22;25928;51.062;13.752;2023-05-10T00:44:40;14.60;99.90
816;DHT22;25928;51.062;13.752;2023-05-10T00:47:06;14.60;99.90
816;DHT22;25928;51.062;13.752;2023-05-10T00:49:32;14.60;99.90
816;DHT22;25928;51.062;13.752;2023-05-10T00:51:58;14.50;99.90
816;DHT22;25928;51.062;13.752;2023-05-10T00:54:24;14.50;99.90
816;DHT22;25928;51.062;13.752;2023-05-10T00:56:50;14.40;99.90
816;DHT22;25928;51.062;13.752;2023-05-10T00:59:16;14.40;99.90
816;DHT22;25928;51.062;13.752;2023-05-10T01:01:44;14.30;99.90
816;DHT22;25928;51.062;13.752;2023-05-10T01:04:12;14.30;99.90
816;DHT22;25928;51.062;13.752;2023-05-10T01:06:41;14.30;99.90
816;DHT22;25928;51.062;13.752;2023-05-10T01:09:07;14.20;99.90
816;DHT22;25928;51.062;13.752;2023-05-10T01:11:37;14.20;99.90
816;DHT22;25928;51.062;13.752;2023-05-10T01:14:03;14.20;99.90
816;DHT22;25928;51.062;13.752;2023-05-10T01:16:33;14.20;99.90
816;DHT22;25928;51.062;13.752;2023-05-10T01:19:00;14.10;99.90
816;DHT22;25928;51.062;13.752;2023-05-10T01:21:41;14.10;99.90
816;DHT22;25928;51.062;13.752;2023-05-10T01:24:46;14.10;99.90
816;DHT22;25928;51.062;13.752;2023-05-10T01:27:30;14.00;99.90
816;DHT22;25928;51.062;13.752;2023-05-10T01:36:05;13.90;99.90
816;DHT22;25928;51.062;13.752;2023-05-10T01:38:53;13.90;99.90
816;DHT22;25928;51.062;13.752;2023-05-10T01:44:29;13.80;99.90
816;DHT22;25928;51.062;13.752;2023-05-10T01:47:08;13.80;99.90
816;DHT22;25928;51.062;13.752;2023-05-10T01:49:43;13.90;99.90
816;DHT22;25928;51.062;13.752;2023-05-10T01:52:12;13.80;99.90
816;DHT22;25928;51.062;13.752;2023-05-10T01:54:44;13.70;99.90
816;DHT22;25928;51.062;13.752;2023-05-10T01:57:13;13.70;99.90
816;DHT22;25928;51.062;13.752;2023-05-10T01:59:40;13.70;99.90
816;DHT22;25928;51.062;13.752;2023-05-10T02:02:09;13.70;99.90
816;DHT22;25928;51.062;13.752;2023-05-10T02:04:38;13.60;99.90
816;DHT22;25928;51.062;13.752;2023-05-10T02:07:06;13.70;99.90
816;DHT22;25928;51.062;13.752;2023-05-10T02:09:33;13.60;99.90
816;DHT22;25928;51.062;13.752;2023-05-10T02:12:01;13.50;99.90
816;DHT22;25928;51.062;13.752;2023-05-10T02:14:30;13.50;99.90
816;DHT22;25928;51.062;13.752;2023-05-10T02:16:58;13.50;99.90
816;DHT22;25928;51.062;13.752;2023-05-10T02:19:25;13.40;99.90
816;DHT22;25928;51.062;13.752;2023-05-10T02:21:55;13.10;99.90
816;DHT22;25928;51.062;13.752;2023-05-10T02:24:22;13.40;99.90
816;DHT22;25928;51.062;13.752;2023-05-10T02:26:50;13.40;99.90
816;DHT22;25928;51.062;13.752;2023-05-10T02:29:17;13.40;99.90
816;DHT22;25928;51.062;13.752;2023-05-10T02:31:44;13.30;99.90
816;DHT22;25928;51.062;13.752;2023-05-10T02:34:11;13.30;99.90
816;DHT22;25928;51.062;13.752;2023-05-10T02:36:38;13.30;99.90
816;DHT22;25928;51.062;13.752;2023-05-10T02:39:05;13.30;99.90
816;DHT22;25928;51.062;13.752;2023-05-10T02:41:35;13.30;99.90
816;DHT22;25928;51.062;13.752;2023-05-10T02:44:02;13.40;99.90
816;DHT22;25928;51.062;13.752;2023-05-10T02:46:28;13.20;99.90
816;DHT22;25928;51.062;13.752;2023-05-10T02:48:54;13.20;99.90
816;DHT22;25928;51.062;13.752;2023-05-10T02:51:21;13.20;99.90
816;DHT22;25928;51.062;13.752;2023-05-10T02:53:51;13.10;99.90
816;DHT22;25928;51.062;13.752;2023-05-10T02:56:50;13.10;99.90
816;DHT22;25928;51.062;13.752;2023-05-10T02:59:16;13.20;99.90
816;DHT22;25928;51.062;13.752;2023-05-10T03:01:42;13.10;99.90
816;DHT22;25928;51.062;13.752;2023-05-10T03:04:07;13.20;99.90
816;DHT22;25928;51.062;13.752;2023-05-10T03:06:33;13.20;99.90
816;DHT22;25928;51.062;13.752;2023-05-10T03:08:59;13.20;99.90
816;DHT22;25928;51.062;13.752;2023-05-10T03:19:39;13.10;99.90
816;DHT22;25928;51.062;13.752;2023-05-10T03:22:10;13.10;99.90
816;DHT22;25928;51.062;13.752;2023-05-10T03:24:39;13.10;99.90
816;DHT22;25928;51.062;13.752;2023-05-10T03:27:08;13.10;99.90
816;DHT22;25928;51.062;13.752;2023-05-10T03:29:34;13.10;99.90
816;DHT22;25928;51.062;13.752;2023-05-10T03:32:00;13.10;99.90
816;DHT22;25928;51.062;13.752;2023-05-10T03:34:26;13.10;99.90
816;DHT22;25928;51.062;13.752;2023-05-10T03:36:52;13.10;99.90
816;DHT22;25928;51.062;13.752;2023-05-10T03:39:17;13.10;99.90
816;DHT22;25928;51.062;13.752;2023-05-10T03:41:43;13.10;99.90
816;DHT22;25928;51.062;13.752;2023-05-10T03:44:09;13.10;99.90
816;DHT22;25928;51.062;13.752;2023-05-10T03:46:34;13.10;99.90
816;DHT22;25928;51.062;13.752;2023-05-10T03:49:00;13.10;99.90
816;DHT22;25928;51.062;13.752;2023-05-10T03:51:25;13.10;99.90
816;DHT22;25928;51.062;13.752;2023-05-10T03:53:56;13.10;99.90
816;DHT22;25928;51.062;13.752;2023-05-10T03:56:22;13.20;99.90
816;DHT22;25928;51.062;13.752;2023-05-10T03:58:47;13.20;99.90
816;DHT22;25928;51.062;13.752;2023-05-10T04:01:13;13.20;99.90
816;DHT22;25928;51.062;13.752;2023-05-10T04:03:39;13.20;99.90
816;DHT22;25928;51.062;13.752;2023-05-10T04:06:04;13.20;99.90
816;DHT22;25928;51.062;13.752;2023-05-10T04:08:31;13.30;99.90
816;DHT22;25928;51.062;13.752;2023-05-10T04:11:06;13.30;99.90
816;DHT22;25928;51.062;13.752;2023-05-10T04:13:32;13.30;99.90
816;DHT22;25928;51.062;13.752;2023-05-10T04:15:58;13.40;99.90
816;DHT22;25928;51.062;13.752;2023-05-10T04:18:24;13.40;99.90
816;DHT22;25928;51.062;13.752;2023-05-10T04:20:49;13.40;99.90
816;DHT22;25928;51.062;13.752;2023-05-10T04:23:15;13.40;99.90
816;DHT22;25928;51.062;13.752;2023-05-10T04:25:42;13.40;99.90
816;DHT22;25928;51.062;13.752;2023-05-10T04:28:07;13.50;99.90
816;DHT22;25928;51.062;13.752;2023-05-10T04:30:34;13.50;99.90
816;DHT22;25928;51.062;13.752;2023-05-10T04:33:00;13.50;99.90
816;DHT22;25928;51.062;13.752;2023-05-10T04:35:27;13.60;99.90
816;DHT22;25928;51.062;13.752;2023-05-10T04:37:53;13.60;99.90
816;DHT22;25928;51.062;13.752;2023-05-10T04:40:19;13.70;99.90
816;DHT22;25928;51.062;13.752;2023-05-10T04:42:45;13.80;99.90
816;DHT22;25928;51.062;13.752;2023-05-10T04:45:11;13.80;99.90
816;DHT22;25928;51.062;13.752;2023-05-10T04:47:37;13.90;99.90
816;DHT22;25928;51.062;13.752;2023-05-10T04:50:03;14.00;99.90
816;DHT22;25928;51.062;13.752;2023-05-10T04:52:29;14.10;99.90
816;DHT22;25928;51.062;13.752;2023-05-10T04:54:55;14.10;99.90
816;DHT22;25928;51.062;13.752;2023-05-10T04:57:20;14.20;99.90
816;DHT22;25928;51.062;13.752;2023-05-10T04:59:46;14.20;99.90
816;DHT22;25928;51.062;13.752;2023-05-10T05:02:12;14.30;99.90
816;DHT22;25928;51.062;13.752;2023-05-10T05:04:37;14.30;99.90
816;DHT22;25928;51.062;13.752;2023-05-10T05:07:03;14.50;99.90
816;DHT22;25928;51.062;13.752;2023-05-10T05:09:29;14.50;99.90
816;DHT22;25928;51.062;13.752;2023-05-10T05:11:54;14.60;99.90
816;DHT22;25928;51.062;13.752;2023-05-10T05:14:20;14.60;99.90
816;DHT22;25928;51.062;13.752;2023-05-10T05:16:53;14.70;99.90
816;DHT22;25928;51.062;13.752;2023-05-10T05:19:19;14.70;99.90
816;DHT22;25928;51.062;13.752;2023-05-10T05:21:44;14.70;99.90
816;DHT22;25928;51.062;13.752;2023-05-10T05:24:10;14.80;99.90
816;DHT22;25928;51.062;13.752;2023-05-10T05:26:37;15.00;99.90
816;DHT22;25928;51.062;13.752;2023-05-10T05:29:03;15.10;99.90
816;DHT22;25928;51.062;13.752;2023-05-10T05:31:29;15.00;99.90
816;DHT22;25928;51.062;13.752;2023-05-10T05:33:54;15.10;99.90
816;DHT22;25928;51.062;13.752;2023-05-10T05:36:21;15.20;99.90
816;DHT22;25928;51.062;13.752;2023-05-10T05:38:46;15.30;99.90
816;DHT22;25928;51.062;13.752;2023-05-10T05:41:12;15.40;99.90
816;DHT22;25928;51.062;13.752;2023-05-10T05:43:37;15.50;99.90
816;DHT22;25928;51.062;13.752;2023-05-10T05:46:03;15.50;99.90
816;DHT22;25928;51.062;13.752;2023-05-10T05:48:30;15.60;99.90
816;DHT22;25928;51.062;13.752;2023-05-10T05:50:56;15.80;99.90
816;DHT22;25928;51.062;13.752;2023-05-10T05:53:22;15.90;99.90
816;DHT22;25928;51.062;13.752;2023-05-10T05:55:56;16.00;99.90
816;DHT22;25928;51.062;13.752;2023-05-10T05:58:22;16.10;99.90
816;DHT22;25928;51.062;13.752;2023-05-10T06:00:48;16.20;99.90
816;DHT22;25928;51.062;13.752;2023-05-10T06:03:14;16.20;99.90
816;DHT22;25928;51.062;13.752;2023-05-10T06:05:39;16.20;99.90
816;DHT22;25928;51.062;13.752;2023-05-10T06:08:05;16.40;99.90
816;DHT22;25928;51.062;13.752;2023-05-10T06:10:31;16.60;99.90
816;DHT22;25928;51.062;13.752;2023-05-10T06:12:56;16.60;99.90
816;DHT22;25928;51.062;13.752;2023-05-10T06:15:22;16.70;99.90
816;DHT22;25928;51.062;13.752;2023-05-10T06:17:48;16.90;99.90
816;DHT22;25928;51.062;13.752;2023-05-10T06:20:15;16.90;99.90
816;DHT22;25928;51.062;13.752;2023-05-10T06:22:41;16.90;99.90
816;DHT22;25928;51.062;13.752;2023-05-10T06:25:08;17.10;99.90
816;DHT22;25928;51.062;13.752;2023-05-10T06:27:33;17.10;99.90
816;DHT22;25928;51.062;13.752;2023-05-10T06:29:59;17.00;99.90
816;DHT22;25928;51.062;13.752;2023-05-10T06:32:25;17.20;99.90
816;DHT22;25928;51.062;13.752;2023-05-10T06:34:51;17.20;99.90
816;DHT22;25928;51.062;13.752;2023-05-10T06:37:16;17.20;99.90
816;DHT22;25928;51.062;13.752;2023-05-10T06:39:42;17.20;99.90
816;DHT22;25928;51.062;13.752;2023-05-10T06:42:08;17.30;99.90
816;DHT22;25928;51.062;13.752;2023-05-10T06:44:33;17.30;99.90
816;DHT22;25928;51.062;13.752;2023-05-10T06:46:59;17.40;99.90
816;DHT22;25928;51.062;13.752;2023-05-10T06:49:24;17.60;99.90
816;DHT22;25928;51.062;13.752;2023-05-10T06:51:50;17.70;99.90
816;DHT22;25928;51.062;13.752;2023-05-10T06:54:16;17.70;99.90
816;DHT22;25928;51.062;13.752;2023-05-10T06:56:41;17.80;99.90
816;DHT22;25928;51.062;13.752;2023-05-10T06:59:07;17.80;99.90
816;DHT22;25928;51.062;13.752;2023-05-10T07:01:33;17.90;99.90
816;DHT22;25928;51.062;13.752;2023-05-10T07:03:58;18.00;99.90
816;DHT22;25928;51.062;13.752;2023-05-10T07:06:24;18.10;99.90
816;DHT22;25928;51.062;13.752;2023-05-10T07:08:49;18.20;99.90
816;DHT22;25928;51.062;13.752;2023-05-10T07:11:15;18.30;99.90
816;DHT22;25928;51.062;13.752;2023-05-10T07:13:41;18.40;99.90
816;DHT22;25928;51.062;13.752;2023-05-10T07:16:09;18.60;99.90
816;DHT22;25928;51.062;13.752;2023-05-10T07:18:35;18.80;99.90
816;DHT22;25928;51.062;13.752;2023-05-10T07:21:01;18.70;99.90
816;DHT22;25928;51.062;13.752;2023-05-10T07:23:27;18.70;99.90
816;DHT22;25928;51.062;13.752;2023-05-10T07:25:53;18.70;99.90
816;DHT22;25928;51.062;13.752;2023-05-10T07:28:19;18.70;99.90
816;DHT22;25928;51.062;13.752;2023-05-10T07:30:45;18.70;99.90
816;DHT22;25928;51.062;13.752;2023-05-10T07:33:12;18.80;99.90
816;DHT22;25928;51.062;13.752;2023-05-10T07:35:38;18.80;99.90
816;DHT22;25928;51.062;13.752;2023-05-10T07:38:04;18.80;99.90
816;DHT22;25928;51.062;13.752;2023-05-10T07:40:30;18.80;99.90
816;DHT22;25928;51.062;13.752;2023-05-10T07:42:55;18.90;99.90
816;DHT22;25928;51.062;13.752;2023-05-10T07:45:22;19.00;99.90
816;DHT22;25928;51.062;13.752;2023-05-10T07:47:48;18.90;99.90
816;DHT22;25928;51.062;13.752;2023-05-10T07:50:14;19.10;99.90
816;DHT22;25928;51.062;13.752;2023-05-10T07:52:40;19.30;99.90
816;DHT22;25928;51.062;13.752;2023-05-10T07:55:06;19.40;99.90
816;DHT22;25928;51.062;13.752;2023-05-10T07:57:33;19.50;99.90
816;DHT22;25928;51.062;13.752;2023-05-10T07:59:59;19.60;99.90
816;DHT22;25928;51.062;13.752;2023-05-10T08:02:25;19.60;99.90
816;DHT22;25928;51.062;13.752;2023-05-10T08:04:50;19.70;99.90
816;DHT22;25928;51.062;13.752;2023-05-10T08:07:17;19.90;99.90
816;DHT22;25928;51.062;13.752;2023-05-10T08:09:42;19.90;99.90
816;DHT22;25928;51.062;13.752;2023-05-10T08:12:08;20.10;99.90
816;DHT22;25928;51.062;13.752;2023-05-10T08:14:34;20.20;99.90
816;DHT22;25928;51.062;13.752;2023-05-10T08:17:02;20.30;99.90
816;DHT22;25928;51.062;13.752;2023-05-10T08:19:28;20.30;99.90
816;DHT22;25928;51.062;13.752;2023-05-10T08:21:54;20.40;99.90
816;DHT22;25928;51.062;13.752;2023-05-10T08:24:21;20.50;99.90
816;DHT22;25928;51.062;13.752;2023-05-10T08:26:47;20.70;99.90
816;DHT22;25928;51.062;13.752;2023-05-10T08:29:13;20.60;99.90
816;DHT22;25928;51.062;13.752;2023-05-10T08:31:39;20.70;99.90
816;DHT22;25928;51.062;13.752;2023-05-10T08:34:05;20.80;99.90
816;DHT22;25928;51.062;13.752;2023-05-10T08:36:30;20.80;99.90
816;DHT22;25928;51.062;13.752;2023-05-10T08:38:57;20.80;99.90
816;DHT22;25928;51.062;13.752;2023-05-10T08:41:24;20.70;99.90
816;DHT22;25928;51.062;13.752;2023-05-10T08:43:52;20.70;99.90
816;DHT22;25928;51.062;13.752;2023-05-10T08:46:20;20.90;99.90
816;DHT22;25928;51.062;13.752;2023-05-10T08:48:46;21.00;99.90
816;DHT22;25928;51.062;13.752;2023-05-10T08:51:20;21.10;99.90
816;DHT22;25928;51.062;13.752;2023-05-10T08:53:47;20.90;99.90
816;DHT22;25928;51.062;13.752;2023-05-10T08:56:13;21.00;99.90
816;DHT22;25928;51.062;13.752;2023-05-10T08:58:41;21.30;99.90
816;DHT22;25928;51.062;13.752;2023-05-10T09:01:07;21.40;99.90
816;DHT22;25928;51.062;13.752;2023-05-10T09:03:34;21.40;99.90
816;DHT22;25928;51.062;13.752;2023-05-10T09:06:00;21.60;99.90
816;DHT22;25928;51.062;13.752;2023-05-10T09:08:26;21.60;99.90
816;DHT22;25928;51.062;13.752;2023-05-10T09:10:53;21.60;99.90
816;DHT22;25928;51.062;13.752;2023-05-10T09:13:19;21.70;99.90
816;DHT22;25928;51.062;13.752;2023-05-10T09:15:46;21.70;99.90
816;DHT22;25928;51.062;13.752;2023-05-10T09:18:12;21.50;99.90
816;DHT22;25928;51.062;13.752;2023-05-10T09:20:38;21.50;99.90
816;DHT22;25928;51.062;13.752;2023-05-10T09:23:03;21.70;99.90
816;DHT22;25928;51.062;13.752;2023-05-10T09:25:29;21.70;99.90
816;DHT22;25928;51.062;13.752;2023-05-10T09:27:55;21.80;99.90
816;DHT22;25928;51.062;13.752;2023-05-10T09:30:29;22.00;99.90
816;DHT22;25928;51.062;13.752;2023-05-10T09:32:56;22.00;99.90
816;DHT22;25928;51.062;13.752;2023-05-10T09:35:23;22.10;99.90
816;DHT22;25928;51.062;13.752;2023-05-10T09:37:52;22.00;99.90
816;DHT22;25928;51.062;13.752;2023-05-10T09:40:21;21.90;99.90
816;DHT22;25928;51.062;13.752;2023-05-10T09:43:10;22.00;99.90
816;DHT22;25928;51.062;13.752;2023-05-10T09:45:36;22.00;99.90
816;DHT22;25928;51.062;13.752;2023-05-10T09:48:03;22.10;99.90
816;DHT22;25928;51.062;13.752;2023-05-10T09:50:29;22.20;99.90
816;DHT22;25928;51.062;13.752;2023-05-10T09:53:00;22.50;99.90
816;DHT22;25928;51.062;13.752;2023-05-10T09:58:06;22.30;99.90
816;DHT22;25928;51.062;13.752;2023-05-10T10:00:40;22.40;99.90
816;DHT22;25928;51.062;13.752;2023-05-10T10:03:07;22.50;99.90
816;DHT22;25928;51.062;13.752;2023-05-10T10:05:40;22.70;99.90
816;DHT22;25928;51.062;13.752;2023-05-10T10:08:06;22.70;99.90
816;DHT22;25928;51.062;13.752;2023-05-10T10:10:33;22.70;99.90
816;DHT22;25928;51.062;13.752;2023-05-10T10:12:59;22.70;99.90
816;DHT22;25928;51.062;13.752;2023-05-10T10:15:25;22.90;99.90
816;DHT22;25928;51.062;13.752;2023-05-10T10:17:52;23.00;99.90
816;DHT22;25928;51.062;13.752;2023-05-10T10:20:19;23.10;99.90
816;DHT22;25928;51.062;13.752;2023-05-10T10:22:45;23.20;99.90
816;DHT22;25928;51.062;13.752;2023-05-10T10:25:14;23.10;99.90
816;DHT22;25928;51.062;13.752;2023-05-10T10:30:39;23.10;99.90
816;DHT22;25928;51.062;13.752;2023-05-10T10:33:40;23.10;99.90
816;DHT22;25928;51.062;13.752;2023-05-10T10:36:12;23.20;99.90
816;DHT22;25928;51.062;13.752;2023-05-10T10:38:55;23.20;99.90
816;DHT22;25928;51.062;13.752;2023-05-10T10:41:29;23.00;99.90
816;DHT22;25928;51.062;13.752;2023-05-10T10:44:35;23.00;99.90
816;DHT22;25928;51.062;13.752;2023-05-10T10:47:22;23.10;99.90
816;DHT22;25928;51.062;13.752;2023-05-10T10:50:07;23.20;99.90
816;DHT22;25928;51.062;13.752;2023-05-10T10:52:38;23.00;99.90
816;DHT22;25928;51.062;13.752;2023-05-10T10:57:54;22.90;99.90
816;DHT22;25928;51.062;13.752;2023-05-10T11:00:30;22.90;99.90
816;DHT22;25928;51.062;13.752;2023-05-10T11:02:58;22.90;99.90
816;DHT22;25928;51.062;13.752;2023-05-10T11:08:25;23.20;99.90
816;DHT22;25928;51.062;13.752;2023-05-10T11:10:54;23.50;99.90
816;DHT22;25928;51.062;13.752;2023-05-10T11:13:31;23.50;99.90
816;DHT22;25928;51.062;13.752;2023-05-10T11:15:58;23.30;99.90
816;DHT22;25928;51.062;13.752;2023-05-10T11:18:28;23.20;99.90
816;DHT22;25928;51.062;13.752;2023-05-10T11:20:59;23.40;99.90
816;DHT22;25928;51.062;13.752;2023-05-10T11:23:30;23.50;99.90
816;DHT22;25928;51.062;13.752;2023-05-10T11:25:56;23.50;99.90
816;DHT22;25928;51.062;13.752;2023-05-10T11:28:22;23.40;99.90
816;DHT22;25928;51.062;13.752;2023-05-10T11:30:48;23.50;99.90
816;DHT22;25928;51.062;13.752;2023-05-10T11:33:18;23.80;99.90
816;DHT22;25928;51.062;13.752;2023-05-10T11:35:45;23.90;99.90
816;DHT22;25928;51.062;13.752;2023-05-10T11:38:12;23.90;99.90
816;DHT22;25928;51.062;13.752;2023-05-10T11:40:38;23.90;99.90
816;DHT22;25928;51.062;13.752;2023-05-10T11:43:04;24.10;99.90
816;DHT22;25928;51.062;13.752;2023-05-10T11:45:34;24.20;99.90
816;DHT22;25928;51.062;13.752;2023-05-10T11:48:01;24.10;99.90
816;DHT22;25928;51.062;13.752;2023-05-10T11:50:27;24.30;99.90
816;DHT22;25928;51.062;13.752;2023-05-10T11:52:53;24.20;99.90
816;DHT22;25928;51.062;13.752;2023-05-10T11:55:19;24.20;99.90
816;DHT22;25928;51.062;13.752;2023-05-10T11:57:45;24.30;99.90
816;DHT22;25928;51.062;13.752;2023-05-10T12:00:12;24.10;99.90
816;DHT22;25928;51.062;13.752;2023-05-10T12:02:38;24.10;99.90
816;DHT22;25928;51.062;13.752;2023-05-10T12:05:05;24.20;99.90
816;DHT22;25928;51.062;13.752;2023-05-10T12:07:31;24.50;99.90
816;DHT22;25928;51.062;13.752;2023-05-10T12:10:13;24.60;99.90
816;DHT22;25928;51.062;13.752;2023-05-10T12:12:46;24.60;99.90
816;DHT22;25928;51.062;13.752;2023-05-10T12:15:22;24.60;99.90
816;DHT22;25928;51.062;13.752;2023-05-10T12:17:48;24.50;99.90
816;DHT22;25928;51.062;13.752;2023-05-10T12:20:21;24.50;99.90
816;DHT22;25928;51.062;13.752;2023-05-10T12:22:50;24.50;99.90
816;DHT22;25928;51.062;13.752;2023-05-10T12:25:17;24.50;99.90
816;DHT22;25928;51.062;13.752;2023-05-10T12:27:51;24.50;99.90
816;DHT22;25928;51.062;13.752;2023-05-10T12:30:25;24.50;99.90
816;DHT22;25928;51.062;13.752;2023-05-10T12:32:51;24.70;99.90
816;DHT22;25928;51.062;13.752;2023-05-10T12:35:17;24.80;99.90
816;DHT22;25928;51.062;13.752;2023-05-10T12:37:47;24.80;99.90
816;DHT22;25928;51.062;13.752;2023-05-10T12:40:13;24.80;99.90
816;DHT22;25928;51.062;13.752;2023-05-10T12:42:39;24.90;99.90
816;DHT22;25928;51.062;13.752;2023-05-10T12:45:06;24.80;99.90
816;DHT22;25928;51.062;13.752;2023-05-10T12:47:32;24.90;99.90
816;DHT22;25928;51.062;13.752;2023-05-10T12:49:59;25.00;99.90
816;DHT22;25928;51.062;13.752;2023-05-10T12:52:25;25.00;99.90
816;DHT22;25928;51.062;13.752;2023-05-10T12:54:51;25.10;99.90
816;DHT22;25928;51.062;13.752;2023-05-10T12:57:17;25.30;99.90
816;DHT22;25928;51.062;13.752;2023-05-10T12:59:43;25.40;99.90
816;DHT22;25928;51.062;13.752;2023-05-10T13:02:09;25.30;99.90
816;DHT22;25928;51.062;13.752;2023-05-10T13:04:35;25.20;99.90
816;DHT22;25928;51.062;13.752;2023-05-10T13:07:07;25.40;99.90
816;DHT22;25928;51.062;13.752;2023-05-10T13:09:33;25.50;99.90
816;DHT22;25928;51.062;13.752;2023-05-10T13:11:58;25.30;99.90
816;DHT22;25928;51.062;13.752;2023-05-10T13:14:24;25.30;99.90
816;DHT22;25928;51.062;13.752;2023-05-10T13:16:50;25.30;99.90
816;DHT22;25928;51.062;13.752;2023-05-10T13:19:16;25.50;99.90
816;DHT22;25928;51.062;13.752;2023-05-10T13:21:43;25.40;99.90
816;DHT22;25928;51.062;13.752;2023-05-10T13:24:10;25.50;99.90
816;DHT22;25928;51.062;13.752;2023-05-10T13:26:36;25.60;99.90
816;DHT22;25928;51.062;13.752;2023-05-10T13:29:02;25.50;99.90
816;DHT22;25928;51.062;13.752;2023-05-10T13:31:28;25.40;99.90
816;DHT22;25928;51.062;13.752;2023-05-10T13:33:55;25.40;99.90
816;DHT22;25928;51.062;13.752;2023-05-10T13:36:20;25.40;99.90
816;DHT22;25928;51.062;13.752;2023-05-10T13:38:46;25.20;99.90
816;DHT22;25928;51.062;13.752;2023-05-10T13:41:12;25.10;99.90
816;DHT22;25928;51.062;13.752;2023-05-10T13:43:37;25.20;99.90
816;DHT22;25928;51.062;13.752;2023-05-10T13:46:03;25.20;99.90
816;DHT22;25928;51.062;13.752;2023-05-10T13:48:28;25.30;99.90
816;DHT22;25928;51.062;13.752;2023-05-10T13:50:54;25.30;99.90
816;DHT22;25928;51.062;13.752;2023-05-10T13:53:20;25.10;99.90
816;DHT22;25928;51.062;13.752;2023-05-10T13:55:46;24.90;99.90
816;DHT22;25928;51.062;13.752;2023-05-10T13:58:12;24.90;99.90
816;DHT22;25928;51.062;13.752;2023-05-10T14:00:38;24.90;99.90
816;DHT22;25928;51.062;13.752;2023-05-10T14:03:03;25.00;99.90
816;DHT22;25928;51.062;13.752;2023-05-10T14:05:30;25.10;99.90
816;DHT22;25928;51.062;13.752;2023-05-10T14:07:56;25.10;99.90
816;DHT22;25928;51.062;13.752;2023-05-10T14:10:22;25.30;99.90
816;DHT22;25928;51.062;13.752;2023-05-10T14:12:49;25.60;99.90
816;DHT22;25928;51.062;13.752;2023-05-10T14:15:15;25.90;99.90
816;DHT22;25928;51.062;13.752;2023-05-10T14:17:41;26.30;99.90
816;DHT22;25928;51.062;13.752;2023-05-10T14:20:07;26.70;99.90
816;DHT22;25928;51.062;13.752;2023-05-10T14:22:33;27.30;99.90
816;DHT22;25928;51.062;13.752;2023-05-10T14:25:00;27.90;99.90
816;DHT22;25928;51.062;13.752;2023-05-10T14:27:26;28.30;99.90
816;DHT22;25928;51.062;13.752;2023-05-10T14:29:51;28.20;99.90
816;DHT22;25928;51.062;13.752;2023-05-10T14:32:18;27.90;99.90
816;DHT22;25928;51.062;13.752;2023-05-10T14:34:44;27.50;99.90
816;DHT22;25928;51.062;13.752;2023-05-10T14:37:11;27.40;99.90
816;DHT22;25928;51.062;13.752;2023-05-10T14:39:37;27.00;99.90
816;DHT22;25928;51.062;13.752;2023-05-10T14:42:03;26.80;99.90
816;DHT22;25928;51.062;13.752;2023-05-10T14:44:28;26.30;99.90
816;DHT22;25928;51.062;13.752;2023-05-10T14:46:54;26.20;99.90
816;DHT22;25928;51.062;13.752;2023-05-10T14:49:20;26.10;99.90
816;DHT22;25928;51.062;13.752;2023-05-10T14:51:48;26.00;99.90
816;DHT22;25928;51.062;13.752;2023-05-10T14:54:14;25.50;99.90
816;DHT22;25928;51.062;13.752;2023-05-10T14:56:39;24.80;99.90
816;DHT22;25928;51.062;13.752;2023-05-10T14:59:07;24.40;99.90
816;DHT22;25928;51.062;13.752;2023-05-10T15:01:32;24.10;99.90
816;DHT22;25928;51.062;13.752;2023-05-10T15:03:59;24.00;99.90
816;DHT22;25928;51.062;13.752;2023-05-10T15:06:31;23.90;99.90
816;DHT22;25928;51.062;13.752;2023-05-10T15:08:57;23.90;99.90
816;DHT22;25928;51.062;13.752;2023-05-10T15:11:22;23.70;99.90
816;DHT22;25928;51.062;13.752;2023-05-10T15:13:48;23.70;99.90
816;DHT22;25928;51.062;13.752;2023-05-10T15:16:14;23.70;99.90
816;DHT22;25928;51.062;13.752;2023-05-10T15:18:39;23.50;99.90
816;DHT22;25928;51.062;13.752;2023-05-10T15:21:05;23.30;99.90
816;DHT22;25928;51.062;13.752;2023-05-10T15:23:30;23.00;99.90
816;DHT22;25928;51.062;13.752;2023-05-10T15:25:57;22.50;99.90
816;DHT22;25928;51.062;13.752;2023-05-10T15:28:23;22.00;99.90
816;DHT22;25928;51.062;13.752;2023-05-10T15:30:48;21.90;99.90
816;DHT22;25928;51.062;13.752;2023-05-10T15:33:14;22.00;99.90
816;DHT22;25928;51.062;13.752;2023-05-10T15:35:40;22.00;99.90
816;DHT22;25928;51.062;13.752;2023-05-10T15:38:06;22.00;99.90
816;DHT22;25928;51.062;13.752;2023-05-10T15:40:32;22.20;99.90
816;DHT22;25928;51.062;13.752;2023-05-10T15:42:58;22.40;99.90
816;DHT22;25928;51.062;13.752;2023-05-10T15:45:23;22.40;99.90
816;DHT22;25928;51.062;13.752;2023-05-10T15:47:49;22.40;99.90
816;DHT22;25928;51.062;13.752;2023-05-10T15:50:15;22.40;99.90
816;DHT22;25928;51.062;13.752;2023-05-10T15:52:41;22.20;99.90
816;DHT22;25928;51.062;13.752;2023-05-10T15:55:08;22.00;99.90
816;DHT22;25928;51.062;13.752;2023-05-10T15:57:41;21.90;99.90
816;DHT22;25928;51.062;13.752;2023-05-10T16:00:08;21.90;99.90
816;DHT22;25928;51.062;13.752;2023-05-10T16:02:34;21.90;99.90
816;DHT22;25928;51.062;13.752;2023-05-10T16:05:00;21.90;99.90
816;DHT22;25928;51.062;13.752;2023-05-10T16:07:26;21.70;99.90
816;DHT22;25928;51.062;13.752;2023-05-10T16:09:51;21.50;99.90
816;DHT22;25928;51.062;13.752;2023-05-10T16:12:17;21.30;99.90
816;DHT22;25928;51.062;13.752;2023-05-10T16:14:43;21.20;99.90